Trammel, Virginia
Current Conditions -  °F | °C
As of 1:15 PM on Wednesday 26 Nov 2014 (Local Time) from KLNP Reporting Station
Overcast Overcast  
Wind Chill: 36°   Ceiling: 2600
Heat Index: 41°   Visibility: 10mi
Dew Point: 34°   Wind: 7mph
Humidity: 76%   Direction: 270°W
Pressure: 29.97"   Gusts: NA
Location:  37.01°N, 82.29°W
Report Text: KLNP 261815Z AUTO 27006KT 10SM SCT010 SCT015 OVC026 05/01 A2997 RMK AO2
Loading
Personal Weather Stations






























Interactive Weather Map New forecast layout! Learn more

10-Day Weather Forecast

Advertisements
Track Severe Weather on mobile